Time;durP1;ratioP1;P1;durP2;ratioP2;P2;SDS_P1;SDS_P2;PMS_P1;PMS_P2;Temp;Humidity;BMP_temperature;BMP_pressure;BME280_temperature;BME280_humidity;BME280_pressure;Samples;Min_cycle;Max_cycle;Signal;HPM_P1;HPM_P2
2023/07/21 00:01:05;;;;;;;3.20;1.20;;;;;;;12.02;100.00;100670.22;5026807;28;20052;-63
2023/07/21 00:03:32;;;;;;;4.55;1.60;;;;;;;11.96;100.00;100674.41;5026640;28;20057;-63
2023/07/21 00:06:06;;;;;;;7.75;2.10;;;;;;;11.92;100.00;100678.47;5026601;28;20517;-62
2023/07/21 00:08:34;;;;;;;2.67;1.33;;;;;;;11.93;100.00;100678.31;5027300;28;20050;-63
2023/07/21 00:11:01;;;;;;;3.80;1.90;;;;;;;11.89;100.00;100676.94;5027367;28;20041;-63
2023/07/21 00:13:28;;;;;;;3.45;1.52;;;;;;;11.88;100.00;100671.75;5027092;28;20111;-63
2023/07/21 00:15:55;;;;;;;3.15;1.27;;;;;;;11.83;100.00;100666.91;5026742;28;20053;-62
2023/07/21 00:18:23;;;;;;;3.80;1.38;;;;;;;11.81;100.00;100665.38;5026933;28;20282;-64
2023/07/21 00:20:50;;;;;;;4.45;1.25;;;;;;;11.83;100.00;100671.41;5026037;28;20057;-62
2023/07/21 00:23:19;;;;;;;2.47;1.10;;;;;;;11.79;100.00;100654.78;5026803;28;20050;-62
2023/07/21 00:25:47;;;;;;;4.43;1.10;;;;;;;11.78;100.00;100657.66;5025573;28;20053;-64
2023/07/21 00:28:14;;;;;;;4.35;1.60;;;;;;;11.76;100.00;100652.47;5026073;28;20128;-63
2023/07/21 00:30:41;;;;;;;5.68;1.33;;;;;;;11.71;100.00;100648.59;5030884;28;20046;-62
2023/07/21 00:33:08;;;;;;;3.50;1.40;;;;;;;11.66;100.00;100654.47;5046003;28;20045;-62
2023/07/21 00:35:35;;;;;;;4.25;1.30;;;;;;;11.61;100.00;100649.56;5046469;28;20148;-63
2023/07/21 00:38:02;;;;;;;3.92;1.38;;;;;;;11.61;100.00;100648.72;5046585;28;20497;-62
2023/07/21 00:40:31;;;;;;;4.15;1.45;;;;;;;11.61;100.00;100648.72;5045677;28;20037;-63
2023/07/21 00:42:57;;;;;;;8.98;1.55;;;;;;;11.58;100.00;100646.38;5045694;28;20095;-63
2023/07/21 00:45:24;;;;;;;5.40;1.65;;;;;;;11.57;100.00;100642.03;5045846;28;20578;-64
2023/07/21 00:47:51;;;;;;;2.15;1.40;;;;;;;11.62;100.00;100656.63;5045766;28;20079;-64
2023/07/21 00:50:18;;;;;;;4.57;1.10;;;;;;;11.62;100.00;100653.09;5044837;28;20049;-62
2023/07/21 00:52:45;;;;;;;3.28;1.17;;;;;;;11.61;100.00;100643.34;5045809;28;20042;-63
2023/07/21 00:55:12;;;;;;;4.75;1.70;;;;;;;11.54;100.00;100645.88;5042931;28;20068;-64
2023/07/21 00:57:38;;;;;;;5.35;2.10;;;;;;;11.48;100.00;100651.91;5043790;28;20045;-61
2023/07/21 01:00:10;;;;;;;5.47;2.55;;;;;;;11.46;100.00;100651.25;5043919;28;20045;-63
2023/07/21 01:02:37;;;;;;;8.68;2.17;;;;;;;11.44;100.00;100648.72;5043427;28;20049;-63
2023/07/21 01:08:46;;;;;;;5.07;1.58;;;;;;;11.47;100.00;100642.19;5041616;28;20186;-63
2023/07/21 01:11:13;;;;;;;2.10;1.23;;;;;;;11.48;100.00;100641.16;5041192;28;20072;-62
2023/07/21 01:13:40;;;;;;;4.80;1.45;;;;;;;11.50;100.00;100646.38;5041816;28;20049;-62
2023/07/21 01:16:10;;;;;;;6.65;1.38;;;;;;;11.55;100.00;100644.88;5042052;28;20480;-63
2023/07/21 01:18:37;;;;;;;5.07;1.58;;;;;;;11.49;100.00;100642.88;5041862;28;20133;-62
2023/07/21 01:21:05;;;;;;;5.60;1.40;;;;;;;11.48;100.00;100643.03;5040444;28;20080;-63
2023/07/21 01:23:44;;;;;;;4.68;2.10;;;;;;;11.49;100.00;100640.19;5041257;28;20041;-62
2023/07/21 01:26:12;;;;;;;3.17;1.58;;;;;;;11.48;100.00;100646.53;5041398;28;20060;-63
2023/07/21 01:28:40;;;;;;;5.18;1.80;;;;;;;11.43;100.00;100641.69;5043039;28;20107;-63
2023/07/21 01:31:09;;;;;;;4.78;1.58;;;;;;;11.43;100.00;100646.22;5032510;28;20054;-62
2023/07/21 01:33:37;;;;;;;6.43;1.75;;;;;;;11.44;100.00;100647.88;5021686;28;20069;-63
2023/07/21 01:36:06;;;;;;;4.28;1.42;;;;;;;11.41;100.00;100642.84;5021325;28;20050;-63
2023/07/21 01:38:34;;;;;;;3.88;1.45;;;;;;;11.41;100.00;100641.03;5020490;28;20112;-62
2023/07/21 01:41:02;;;;;;;9.32;1.92;;;;;;;11.37;100.00;100636.13;5020768;28;20131;-62
2023/07/21 01:43:28;;;;;;;7.28;1.75;;;;;;;11.29;100.00;100642.34;5020252;28;20096;-62
2023/07/21 01:45:55;;;;;;;5.50;2.65;;;;;;;11.29;100.00;100644.19;5022716;28;20077;-64
2023/07/21 01:48:24;;;;;;;4.43;2.50;;;;;;;11.24;100.00;100639.34;5022438;28;20057;-63
2023/07/21 01:50:52;;;;;;;6.43;3.35;;;;;;;11.24;100.00;100644.72;5020884;28;20132;-62
2023/07/21 01:53:26;;;;;;;5.82;2.08;;;;;;;11.22;100.00;100641.34;5021383;28;20042;-63
2023/07/21 01:56:02;;;;;;;7.13;1.98;;;;;;;11.20;100.00;100640.66;5021141;28;20065;-62
2023/07/21 01:58:30;;;;;;;2.53;1.52;;;;;;;11.18;100.00;100638.16;5019982;28;20054;-62
2023/07/21 02:01:01;;;;;;;4.88;2.00;;;;;;;11.18;100.00;100637.31;5020150;28;20471;-64
2023/07/21 02:03:28;;;;;;;5.23;2.07;;;;;;;11.18;100.00;100640.00;5020382;28;20145;-63
2023/07/21 02:05:55;;;;;;;4.07;1.80;;;;;;;11.16;100.00;100648.19;5020661;28;20073;-62
2023/07/21 02:08:21;;;;;;;5.43;2.78;;;;;;;11.15;100.00;100643.84;5020577;28;20114;-62
2023/07/21 02:10:48;;;;;;;6.13;2.20;;;;;;;11.16;100.00;100647.38;5020320;28;20128;-62
2023/07/21 02:13:15;;;;;;;5.80;1.77;;;;;;;11.14;100.00;100649.41;5019698;28;20127;-62
2023/07/21 02:15:42;;;;;;;5.38;2.20;;;;;;;11.14;100.00;100649.41;5018812;28;20068;-63
2023/07/21 02:18:09;;;;;;;7.05;2.13;;;;;;;11.09;100.00;100649.03;5020695;28;20058;-62
2023/07/21 02:20:35;;;;;;;5.43;2.78;;;;;;;10.98;100.00;100648.34;5020861;28;20050;-62
2023/07/21 02:23:02;;;;;;;5.60;2.03;;;;;;;10.98;100.00;100656.41;5020273;28;20049;-63
2023/07/21 02:25:28;;;;;;;9.85;3.03;;;;;;;10.96;100.00;100653.06;5018163;28;20050;-62
2023/07/21 02:27:55;;;;;;;5.20;2.00;;;;;;;10.98;100.00;100653.72;5021704;28;20054;-63
2023/07/21 02:30:23;;;;;;;7.13;2.20;;;;;;;10.95;100.00;100647.84;5023429;28;20382;-62
2023/07/21 02:32:49;;;;;;;5.78;2.17;;;;;;;10.97;100.00;100651.22;5039994;28;20046;-62
2023/07/21 02:35:16;;;;;;;5.07;2.05;;;;;;;10.92;100.00;100651.69;5040117;28;20076;-62
2023/07/21 02:37:43;;;;;;;3.80;1.75;;;;;;;10.91;100.00;100647.31;5040385;28;20421;-63
2023/07/21 02:40:12;;;;;;;4.68;2.35;;;;;;;10.86;100.00;100652.34;5039634;28;20064;-62
2023/07/21 02:42:38;;;;;;;5.22;2.15;;;;;;;10.84;100.00;100651.66;5040444;28;20046;-64
2023/07/21 02:45:05;;;;;;;6.90;2.10;;;;;;;10.78;100.00;100641.59;5037091;28;20111;-62
2023/07/21 02:47:32;;;;;;;8.07;2.20;;;;;;;10.76;100.00;100638.25;5037456;28;20053;-62
2023/07/21 02:49:58;;;;;;;4.85;2.00;;;;;;;10.76;100.00;100630.19;5039363;28;20050;-62
2023/07/21 02:52:27;;;;;;;4.95;2.15;;;;;;;10.76;100.00;100637.41;5042099;28;20101;-62
2023/07/21 02:54:54;;;;;;;6.07;1.90;;;;;;;10.78;100.00;100632.69;5041573;28;20045;-63
2023/07/21 02:57:21;;;;;;;3.88;2.03;;;;;;;10.76;100.00;100635.56;5041186;28;20480;-62
2023/07/21 02:59:48;;;;;;;6.15;2.20;;;;;;;10.76;100.00;100627.50;5038691;28;20076;-63
2023/07/21 03:02:17;;;;;;;6.20;2.30;;;;;;;10.65;100.00;100628.66;5040039;28;20463;-62
2023/07/21 03:04:45;;;;;;;5.38;2.05;;;;;;;10.64;100.00;100628.81;5039466;28;20105;-64
2023/07/21 03:07:12;;;;;;;5.88;2.30;;;;;;;10.67;100.00;100628.47;5039980;28;20049;-62
2023/07/21 03:09:39;;;;;;;7.97;2.35;;;;;;;10.68;100.00;100630.97;5038950;28;20053;-63
2023/07/21 03:12:06;;;;;;;8.05;2.53;;;;;;;10.66;100.00;100632.16;5039774;28;20460;-63
2023/07/21 03:14:34;;;;;;;5.63;2.08;;;;;;;10.68;100.00;100635.50;5037729;28;20100;-63
2023/07/21 03:17:00;;;;;;;3.22;1.80;;;;;;;10.62;100.00;100617.41;5040074;28;20049;-63
2023/07/21 03:19:32;;;;;;;6.50;2.40;;;;;;;10.62;100.00;100622.78;5035460;28;20045;-63
2023/07/21 03:22:00;;;;;;;6.45;2.30;;;;;;;10.64;100.00;100623.44;5021173;28;20075;-63
2023/07/21 03:24:27;;;;;;;4.80;2.20;;;;;;;10.68;100.00;100622.09;5020257;28;20053;-64
2023/07/21 03:26:54;;;;;;;6.72;2.00;;;;;;;10.64;100.00;100629.63;5020663;28;20564;-63
2023/07/21 03:29:21;;;;;;;7.55;2.35;;;;;;;10.68;100.00;100627.47;5020115;28;20143;-62
2023/07/21 03:31:48;;;;;;;8.90;2.00;;;;;;;10.68;100.00;100630.16;5033499;28;20075;-62
2023/07/21 03:34:15;;;;;;;14.68;6.75;;;;;;;10.66;100.00;100626.81;5040480;28;20512;-62
2023/07/21 03:36:41;;;;;;;6.07;3.97;;;;;;;10.67;100.00;100626.63;5041392;28;20053;-62
2023/07/21 03:39:08;;;;;;;14.10;6.93;;;;;;;10.72;100.00;100624.31;5044609;28;20585;-62
2023/07/21 03:41:35;;;;;;;10.10;2.45;;;;;;;10.71;100.00;100630.66;5043187;28;20052;-63
2023/07/21 03:44:02;;;;;;;6.22;1.80;;;;;;;10.71;100.00;100629.81;5043321;28;20045;-63
2023/07/21 03:46:29;;;;;;;3.92;1.75;;;;;;;10.77;100.00;100634.53;5042264;28;20045;-64
2023/07/21 03:48:56;;;;;;;4.90;2.15;;;;;;;10.79;100.00;100629.00;5043779;28;20049;-64
2023/07/21 03:51:23;;;;;;;3.00;1.65;;;;;;;10.72;100.00;100618.06;5043454;28;20119;-62
2023/07/21 03:53:49;;;;;;;6.25;2.20;;;;;;;10.77;100.00;100626.50;5042224;28;20052;-62
2023/07/21 03:56:16;;;;;;;5.25;2.60;;;;;;;10.80;100.00;100628.03;5044184;28;20505;-62
2023/07/21 03:58:43;;;;;;;5.43;2.30;;;;;;;10.83;100.00;100619.66;5042611;28;20137;-62
2023/07/21 04:01:10;;;;;;;4.65;2.40;;;;;;;10.89;100.00;100617.13;5041552;28;20049;-62
2023/07/21 04:03:36;;;;;;;7.32;2.25;;;;;;;10.93;100.00;100617.66;5040759;28;20048;-63
2023/07/21 04:06:07;;;;;;;5.40;1.98;;;;;;;10.94;100.00;100612.09;5042247;28;20049;-62
2023/07/21 04:08:35;;;;;;;3.70;1.95;;;;;;;11.02;100.00;100615.81;5042266;28;20049;-62
2023/07/21 04:11:01;;;;;;;3.70;2.00;;;;;;;11.06;100.00;100601.03;5042900;28;20061;-62
2023/07/21 04:13:29;;;;;;;4.95;1.80;;;;;;;11.07;100.00;100608.09;5041562;28;20045;-62
2023/07/21 04:15:55;;;;;;;4.75;2.13;;;;;;;11.04;100.00;100603.91;5043023;28;20084;-64
2023/07/21 04:18:25;;;;;;;10.48;2.38;;;;;;;11.03;100.00;100604.06;5044214;28;20367;-63
2023/07/21 04:20:51;;;;;;;6.10;2.38;;;;;;;11.06;100.00;100606.41;5043410;28;20049;-62
2023/07/21 04:23:18;;;;;;;4.20;2.13;;;;;;;11.14;100.00;100606.44;5042351;28;20069;-62
2023/07/21 04:25:46;;;;;;;6.78;2.53;;;;;;;11.24;100.00;100604.44;5042416;28;20057;-63
2023/07/21 04:28:13;;;;;;;8.68;2.40;;;;;;;11.23;100.00;100603.56;5044150;28;20049;-63
2023/07/21 04:30:40;;;;;;;5.32;2.25;;;;;;;11.30;100.00;100598.38;5037485;28;20046;-64
2023/07/21 04:33:06;;;;;;;3.78;2.22;;;;;;;11.40;100.00;100592.81;5021612;28;20107;-63
2023/07/21 04:35:33;;;;;;;6.85;2.03;;;;;;;11.48;100.00;100597.34;5022070;28;20081;-63
2023/07/21 04:38:00;;;;;;;5.43;2.38;;;;;;;11.53;100.00;100608.44;5020756;28;20080;-63
2023/07/21 04:40:27;;;;;;;4.13;1.85;;;;;;;11.56;100.00;100600.03;5023133;28;20038;-65
2023/07/21 04:42:53;;;;;;;6.40;2.58;;;;;;;11.72;100.00;100601.88;5021980;28;20056;-63
2023/07/21 04:45:20;;;;;;;5.80;2.15;;;;;;;11.79;100.00;100597.50;5021074;28;20050;-62
2023/07/21 04:47:49;;;;;;;6.50;3.15;;;;;;;11.92;100.00;100598.66;5020857;28;20085;-63
2023/07/21 04:50:16;;;;;;;10.65;2.17;;;;;;;12.04;100.00;100599.13;5023160;28;20073;-62
2023/07/21 04:52:42;;;;;;;5.82;2.00;;;;;;;11.93;100.00;100603.03;5022948;28;20061;-63
2023/07/21 04:55:08;;;;;;;5.10;2.67;;;;;;;11.93;100.00;100599.47;5021754;28;20104;-63
2023/07/21 04:57:35;;;;;;;4.47;2.00;;;;;;;11.99;100.00;100603.34;5019922;28;20566;-63
2023/07/21 05:00:03;;;;;;;5.13;2.35;;;;;;;11.93;100.00;100597.66;5021738;28;20465;-63
2023/07/21 05:02:30;;;;;;;5.53;1.88;;;;;;;11.92;100.00;100581.69;5000833;28;20042;-63
2023/07/21 05:04:57;;;;;;;3.05;1.65;;;;;;;11.90;100.00;100598.00;5002306;28;20115;-62
2023/07/21 05:07:26;;;;;;;4.15;2.22;;;;;;;11.93;100.00;100594.09;5003836;28;20046;-64
2023/07/21 05:09:55;;;;;;;9.27;2.10;;;;;;;11.95;100.00;100593.94;5001614;28;20482;-63
2023/07/21 05:12:24;;;;;;;8.05;2.00;;;;;;;12.02;100.00;100592.25;5001307;28;20137;-64
2023/07/21 05:14:51;;;;;;;4.50;2.08;;;;;;;11.92;100.00;100592.44;5001245;28;20114;-62
2023/07/21 05:17:18;;;;;;;3.97;1.65;;;;;;;11.87;100.00;100587.59;4999579;28;20121;-63
2023/07/21 05:19:45;;;;;;;4.22;1.83;;;;;;;11.96;100.00;100598.31;4999937;28;20046;-62
2023/07/21 05:22:13;;;;;;;6.03;1.75;;;;;;;12.13;100.00;100597.25;4999109;28;20054;-63
2023/07/21 05:24:43;;;;;;;4.95;1.92;;;;;;;12.17;100.00;100595.88;4998875;28;20050;-63
2023/07/21 05:27:10;;;;;;;6.32;1.92;;;;;;;12.22;100.00;100596.22;4999857;28;20062;-63
2023/07/21 05:29:37;;;;;;;9.90;2.28;;;;;;;12.23;100.00;100592.50;5002081;28;20043;-63
2023/07/21 05:32:06;;;;;;;8.45;2.20;;;;;;;12.26;100.00;100589.47;5032959;28;20107;-63
2023/07/21 05:34:33;;;;;;;7.72;2.20;;;;;;;12.21;100.00;100591.84;5040445;28;20124;-62
2023/07/21 05:37:00;;;;;;;7.65;2.88;;;;;;;12.12;100.00;100584.81;5041049;28;20481;-62
2023/07/21 05:39:30;;;;;;;8.43;1.98;;;;;;;12.20;100.00;100579.41;5038141;28;20041;-63
2023/07/21 05:41:58;;;;;;;7.43;2.30;;;;;;;12.16;100.00;100576.22;5040087;28;20478;-64
2023/07/21 05:44:26;;;;;;;7.93;2.22;;;;;;;12.21;100.00;100580.22;5041077;28;20119;-63
2023/07/21 05:46:53;;;;;;;11.55;2.20;;;;;;;12.33;100.00;100568.91;5040634;28;20049;-62
2023/07/21 05:49:21;;;;;;;7.22;2.70;;;;;;;12.40;100.00;100583.34;5038960;28;20049;-63
2023/07/21 05:51:49;;;;;;;4.25;2.35;;;;;;;12.41;100.00;100581.50;5038072;28;20045;-62
2023/07/21 05:54:16;;;;;;;8.43;2.30;;;;;;;12.47;100.00;100579.97;5039581;28;20080;-63
2023/07/21 05:56:42;;;;;;;5.53;2.03;;;;;;;12.50;100.00;100590.38;5040161;28;20045;-62
2023/07/21 05:59:09;;;;;;;9.60;2.15;;;;;;;12.54;100.00;100591.69;5039763;28;20119;-63
2023/07/21 06:01:36;;;;;;;5.07;2.17;;;;;;;12.80;100.00;100594.09;5038566;28;20068;-63
2023/07/21 06:04:04;;;;;;;6.00;2.30;;;;;;;13.05;100.00;100592.91;5040234;28;20129;-62
2023/07/21 06:06:31;;;;;;;8.98;2.05;;;;;;;12.83;100.00;100588.34;5039928;28;20067;-63
2023/07/21 06:08:58;;;;;;;8.25;2.03;;;;;;;12.84;100.00;100593.56;5039762;28;20516;-63
2023/07/21 06:11:26;;;;;;;4.15;1.77;;;;;;;12.81;100.00;100593.91;5039431;28;20049;-62
2023/07/21 06:13:54;;;;;;;8.55;2.65;;;;;;;13.04;100.00;100585.00;5039657;28;20069;-63
2023/07/21 06:16:24;;;;;;;7.57;1.98;;;;;;;12.78;100.00;100588.88;5038718;28;20046;-63
2023/07/21 06:18:52;;;;;;;12.50;2.53;;;;;;;13.02;100.00;100595.97;5039561;28;20041;-64
2023/07/21 06:21:20;;;;;;;7.45;2.55;;;;;;;13.14;100.00;100599.06;5036875;28;20115;-63
2023/07/21 06:23:47;;;;;;;5.72;2.40;;;;;;;13.16;100.00;100599.72;5038781;28;20053;-63
2023/07/21 06:26:15;;;;;;;9.65;3.17;;;;;;;13.14;100.00;100593.69;5040083;28;20053;-63
2023/07/21 06:28:41;;;;;;;15.05;5.68;;;;;;;13.06;100.00;100593.75;5040378;28;20099;-63
2023/07/21 06:31:10;;;;;;;23.10;8.05;;;;;;;13.02;100.00;100587.06;5030299;28;20056;-63
2023/07/21 06:33:37;;;;;;;21.15;8.02;;;;;;;12.99;100.00;100590.09;5018087;28;20191;-63
2023/07/21 06:36:05;;;;;;;17.77;7.20;;;;;;;12.98;100.00;100583.88;5018365;28;20050;-63
2023/07/21 06:38:31;;;;;;;24.02;8.82;;;;;;;13.02;100.00;100582.50;5018907;28;20046;-63
2023/07/21 06:40:58;;;;;;;27.73;10.80;;;;;;;13.00;100.00;100584.53;5018716;28;20097;-64
2023/07/21 06:43:25;;;;;;;27.77;12.27;;;;;;;12.94;100.00;100581.72;5021954;28;20053;-63
2023/07/21 06:45:52;;;;;;;36.95;13.13;;;;;;;12.97;100.00;100575.97;5020548;28;20049;-64
2023/07/21 06:48:18;;;;;;;41.85;15.63;;;;;;;13.02;100.00;100579.81;5019597;28;20049;-63
2023/07/21 06:50:47;;;;;;;35.28;15.13;;;;;;;13.06;100.00;100575.72;5020682;28;20100;-64
2023/07/21 06:53:17;;;;;;;46.78;17.80;;;;;;;13.04;100.00;100571.53;5019215;28;20080;-64
2023/07/21 06:55:46;;;;;;;49.38;18.70;;;;;;;13.00;100.00;100583.69;5018373;28;20050;-63
2023/07/21 06:58:13;;;;;;;46.72;17.52;;;;;;;13.06;100.00;100582.97;5019412;28;20425;-64
2023/07/21 07:00:39;;;;;;;44.80;17.92;;;;;;;13.04;100.00;100576.91;5020141;28;20391;-62
2023/07/21 07:03:06;;;;;;;52.53;19.98;;;;;;;13.11;100.00;100577.88;5019954;28;20053;-62
2023/07/21 07:05:33;;;;;;;51.13;19.92;;;;;;;13.07;100.00;100581.94;5020865;28;20050;-64
2023/07/21 07:08:03;;;;;;;54.05;19.13;;;;;;;13.04;100.00;100583.19;5018234;28;20066;-63
2023/07/21 07:10:29;;;;;;;48.67;20.13;;;;;;;13.16;100.00;100585.44;5021104;28;20042;-63
2023/07/21 07:12:56;;;;;;;51.67;20.23;;;;;;;13.20;100.00;100582.19;5022699;28;20073;-62
2023/07/21 07:15:22;;;;;;;55.60;20.15;;;;;;;13.12;100.00;100584.97;5023758;28;20034;-63
2023/07/21 07:17:49;;;;;;;52.75;20.20;;;;;;;13.14;100.00;100582.91;5023517;28;20068;-63
2023/07/21 07:20:16;;;;;;;50.72;19.10;;;;;;;13.09;100.00;100590.69;5023790;28;20048;-62
2023/07/21 07:22:43;;;;;;;52.40;21.33;;;;;;;13.19;100.00;100580.53;5023665;28;20046;-64
2023/07/21 07:25:10;;;;;;;47.20;17.90;;;;;;;13.16;100.00;100575.50;5023616;28;20458;-63
2023/07/21 07:27:36;;;;;;;49.78;18.58;;;;;;;13.35;100.00;100584.91;5022655;28;20045;-63
2023/07/21 07:30:07;;;;;;;48.22;18.38;;;;;;;13.61;100.00;100586.38;5023912;28;20111;-64
2023/07/21 07:32:33;;;;;;;46.95;18.95;;;;;;;13.81;100.00;100584.88;5042844;28;20461;-64
2023/07/21 07:35:00;;;;;;;52.80;19.30;;;;;;;13.93;100.00;100586.06;5044686;28;20064;-64
2023/07/21 07:37:27;;;;;;;50.60;18.85;;;;;;;13.90;100.00;100578.34;5041499;28;20046;-64
2023/07/21 07:39:55;;;;;;;47.70;16.67;;;;;;;13.98;100.00;100580.97;5042497;28;20061;-64
2023/07/21 07:42:23;;;;;;;44.45;17.35;;;;;;;14.18;100.00;100583.91;5042825;28;20059;-65
2023/07/21 07:44:55;;;;;;;45.20;17.55;;;;;;;14.37;100.00;100579.81;5041113;28;20045;-63
2023/07/21 07:47:22;;;;;;;37.88;16.20;;;;;;;14.47;100.00;100574.13;5041544;28;20056;-64
2023/07/21 07:49:50;;;;;;;33.67;15.23;;;;;;;14.77;100.00;100581.16;5039851;28;20049;-63
2023/07/21 07:52:18;;;;;;;37.78;14.15;;;;;;;14.71;100.00;100581.03;5042316;28;20072;-64
2023/07/21 07:54:44;;;;;;;32.03;12.40;;;;;;;14.19;100.00;100572.13;5031218;28;20050;-64
2023/07/21 07:57:11;;;;;;;30.52;11.98;;;;;;;14.34;100.00;100569.38;5023665;28;20050;-63
2023/07/21 07:59:37;;;;;;;26.38;10.52;;;;;;;14.70;100.00;100576.66;5021181;28;20042;-64
2023/07/21 08:02:06;;;;;;;23.95;7.95;;;;;;;14.56;100.00;100567.56;5021535;28;20536;-65
2023/07/21 08:04:32;;;;;;;27.90;9.52;;;;;;;14.69;100.00;100573.13;5022466;28;20046;-63
2023/07/21 08:06:59;;;;;;;21.70;8.80;;;;;;;14.64;100.00;100563.94;5022298;28;20077;-63
2023/07/21 08:09:26;;;;;;;29.25;7.57;;;;;;;14.81;100.00;100564.53;5022469;28;20670;-64
2023/07/21 08:11:53;;;;;;;20.92;5.95;;;;;;;14.77;100.00;100566.78;5022419;28;20053;-64
2023/07/21 08:14:19;;;;;;;15.93;4.50;;;;;;;14.66;100.00;100568.09;5022066;28;20046;-64
2023/07/21 08:16:47;;;;;;;13.27;4.05;;;;;;;14.80;100.00;100574.50;5022157;28;20046;-64
2023/07/21 08:19:13;;;;;;;11.90;4.20;;;;;;;15.23;100.00;100563.72;5021387;28;20057;-63
2023/07/21 08:21:40;;;;;;;20.38;6.43;;;;;;;15.19;100.00;100563.28;5021367;28;20069;-65
2023/07/21 08:24:06;;;;;;;11.82;3.97;;;;;;;15.33;100.00;100563.34;5021739;28;20045;-65
2023/07/21 08:26:33;;;;;;;14.70;3.75;;;;;;;15.45;100.00;100567.22;5021395;28;20046;-65
2023/07/21 08:28:59;;;;;;;10.45;3.80;;;;;;;15.41;100.00;100563.25;5022508;28;20050;-65
2023/07/21 08:31:26;;;;;;;9.02;3.90;;;;;;;15.40;100.00;100569.69;5034986;28;20103;-64
2023/07/21 08:33:53;;;;;;;5.00;2.22;;;;;;;14.98;100.00;100560.56;5042894;28;20049;-65
2023/07/21 08:36:20;;;;;;;10.23;2.85;;;;;;;14.98;100.00;100555.16;5042092;28;20045;-65
2023/07/21 08:38:46;;;;;;;7.22;2.55;;;;;;;15.14;100.00;100563.00;5041975;28;20050;-64
2023/07/21 08:41:17;;;;;;;2.88;1.85;;;;;;;15.25;100.00;100562.47;5042428;28;20103;-65
2023/07/21 08:43:46;;;;;;;6.70;1.88;;;;;;;15.32;100.00;100565.22;5040792;28;20037;-65
2023/07/21 08:46:13;;;;;;;8.13;2.78;;;;;;;15.37;100.00;100557.38;5041186;28;20073;-65
2023/07/21 08:48:40;;;;;;;7.60;2.45;;;;;;;15.39;100.00;100565.28;5043563;28;20037;-64
2023/07/21 08:51:08;;;;;;;7.10;2.00;;;;;;;15.41;100.00;100563.25;5042275;28;20045;-64
2023/07/21 08:53:34;;;;;;;4.30;1.35;;;;;;;15.03;100.00;100566.22;5042913;28;20045;-65
2023/07/21 08:56:02;;;;;;;3.92;1.45;;;;;;;15.21;100.00;100566.59;5042353;28;20054;-65
2023/07/21 08:58:29;;;;;;;6.53;1.67;;;;;;;14.98;100.00;100560.56;5042115;28;20053;-67
2023/07/21 09:00:57;;;;;;;7.63;1.80;;;;;;;15.21;100.00;100566.59;5043687;28;20104;-64
2023/07/21 09:03:29;;;;;;;6.25;2.05;;;;;;;15.24;100.00;100554.56;5041949;28;20101;-66
2023/07/21 09:05:59;;;;;;;8.63;2.08;;;;;;;15.12;100.00;100556.97;5043216;28;20105;-64
2023/07/21 09:08:28;;;;;;;8.98;1.73;;;;;;;15.29;100.00;100562.91;5042087;28;20041;-65
2023/07/21 09:11:00;;;;;;;8.80;2.20;;;;;;;15.34;100.00;100560.47;5042319;28;20083;-66
2023/07/21 09:13:27;;;;;;;;;;;;;;;15.32;100.00;100561.69;5043097;28;20052;-64
2023/07/21 09:16:06;;;;;;;7.85;1.70;;;;;;;15.25;100.00;100548.13;5042138;28;19943;-65
2023/07/21 09:18:41;;;;;;;9.52;2.20;;;;;;;15.35;100.00;100558.59;5041158;28;20224;-63
2023/07/21 09:21:28;;;;;;;5.15;1.80;;;;;;;15.55;100.00;100548.78;5041511;28;20099;-63
2023/07/21 09:24:02;;;;;;;9.85;2.30;;;;;;;15.59;100.00;100552.75;5040916;28;20049;-63
2023/07/21 09:26:29;;;;;;;8.77;2.10;;;;;;;15.79;100.00;100552.94;5039303;28;20099;-63
2023/07/21 09:28:56;;;;;;;9.98;1.80;;;;;;;15.48;100.00;100545.19;5037989;28;20045;-64
2023/07/21 09:31:31;;;;;;;18.40;2.42;;;;;;;15.53;100.00;100550.00;5029344;28;20597;-64
2023/07/21 09:34:09;;;;;;;9.73;1.95;;;;;;;15.74;100.00;100546.44;5014513;28;20068;-64
2023/07/21 11:39:11;;;;;;;5.72;1.92;;;;;;;16.76;100.00;100448.97;5432982;23;20041;-65
2023/07/21 11:41:40;;;;;;;6.97;1.65;;;;;;;16.57;100.00;100447.88;5021590;28;20041;-67
2023/07/21 11:44:25;;;;;;;5.00;1.80;;;;;;;16.14;100.00;100450.91;5039843;28;20041;-64
2023/07/21 11:46:55;;;;;;;4.70;1.40;;;;;;;16.36;100.00;100448.88;5041810;28;20409;-64
2023/07/21 11:49:23;;;;;;;4.78;1.65;;;;;;;16.52;100.00;100450.41;5040540;28;20049;-65
2023/07/21 11:51:53;;;;;;;7.28;2.25;;;;;;;16.37;100.00;100447.00;5040443;28;20495;-64
2023/07/21 11:54:25;;;;;;;7.07;2.00;;;;;;;16.35;100.00;100449.09;5040580;28;20049;-64
2023/07/21 11:56:52;;;;;;;7.00;1.90;;;;;;;16.23;100.00;100438.03;5039848;28;20071;-64
2023/07/21 11:59:19;;;;;;;4.63;2.03;;;;;;;16.07;100.00;100443.81;5041216;28;20060;-64
2023/07/21 12:01:47;;;;;;;6.38;1.67;;;;;;;16.05;100.00;100444.00;5040503;28;20045;-64
2023/07/21 12:04:14;;;;;;;5.88;1.73;;;;;;;16.16;100.00;100438.00;5040604;28;20049;-64
2023/07/21 12:06:41;;;;;;;5.47;1.70;;;;;;;16.12;100.00;100442.13;5040765;28;20069;-64
2023/07/21 12:09:09;;;;;;;5.63;1.98;;;;;;;16.09;100.00;100444.41;5040354;28;20112;-63
2023/07/21 12:11:37;;;;;;;6.07;2.20;;;;;;;16.24;100.00;100436.97;5040977;28;20049;-63
2023/07/21 12:14:04;;;;;;;5.85;2.05;;;;;;;16.25;100.00;100444.06;5039994;28;20041;-64
2023/07/21 12:16:32;;;;;;;4.93;1.40;;;;;;;16.33;100.00;100437.63;5023790;28;20046;-65
2023/07/21 12:18:59;;;;;;;4.22;1.27;;;;;;;16.46;100.00;100439.53;5040277;28;20072;-65
2023/07/21 12:21:26;;;;;;;7.20;2.05;;;;;;;16.46;100.00;100443.06;5042359;28;20452;-63
2023/07/21 12:23:53;;;;;;;3.60;1.52;;;;;;;16.46;100.00;100442.22;5023215;28;20095;-64
2023/07/21 12:26:20;;;;;;;8.98;2.08;;;;;;;16.24;100.00;100441.56;5040139;28;20112;-63
2023/07/21 12:28:53;;;;;;;4.03;1.50;;;;;;;16.25;100.00;100449.47;5042510;28;20049;-64
2023/07/21 12:31:21;;;;;;;4.15;1.65;;;;;;;16.36;100.00;100442.63;5041446;28;20045;-64
2023/07/21 12:33:48;;;;;;;3.42;1.90;;;;;;;16.34;100.00;100447.44;5040385;28;20053;-63
2023/07/21 12:36:16;;;;;;;10.77;4.05;;;;;;;16.39;100.00;100444.91;5039933;28;20175;-65
2023/07/21 12:38:43;;;;;;;6.85;2.40;;;;;;;16.53;100.00;100446.63;5041421;28;20048;-63
2023/07/21 12:41:10;;;;;;;3.78;2.53;;;;;;;16.68;100.00;100451.88;5040706;28;20049;-64
2023/07/21 12:43:37;;;;;;;3.60;1.58;;;;;;;16.56;100.00;100440.81;5041650;28;20060;-65
2023/07/21 12:46:05;;;;;;;3.75;1.20;;;;;;;16.37;100.00;100441.59;5041409;28;20103;-64
2023/07/21 12:48:33;;;;;;;3.00;1.50;;;;;;;16.45;100.00;100444.09;5041515;28;20060;-63
2023/07/21 12:51:01;;;;;;;7.72;1.83;;;;;;;16.53;100.00;100435.81;5040580;28;20041;-65
2023/07/21 12:53:28;;;;;;;3.03;1.52;;;;;;;16.64;100.00;100432.50;5040866;28;20049;-63
2023/07/21 12:55:55;;;;;;;3.53;1.30;;;;;;;16.78;100.00;100438.75;5040063;28;20099;-62
2023/07/21 12:58:22;;;;;;;3.65;1.45;;;;;;;16.71;100.00;100431.66;5039375;28;20057;-67
2023/07/21 13:00:49;;;;;;;4.95;2.22;;;;;;;16.78;100.00;100433.34;5040157;28;20057;-64
2023/07/21 13:03:15;;;;;;;2.63;1.80;;;;;;;16.76;100.00;100427.28;5039726;28;20041;-64
2023/07/21 13:05:42;;;;;;;3.08;1.73;;;;;;;16.87;100.00;100428.53;5039945;28;20045;-65
2023/07/21 13:08:22;;;;;;;3.58;1.88;;;;;;;16.98;100.00;100427.91;5039224;28;20050;-64
2023/07/21 13:10:48;;;;;;;7.43;3.17;;;;;;;16.93;100.00;100425.00;5040072;28;20057;-65
2023/07/21 13:13:16;;;;;;;3.28;1.65;;;;;;;17.04;100.00;100426.25;5041182;28;20055;-65
2023/07/21 13:15:43;;;;;;;5.72;1.55;;;;;;;17.08;100.00;100430.19;5040037;28;20041;-64
2023/07/21 13:18:09;;;;;;;3.22;1.33;;;;;;;17.00;100.00;100425.81;5039728;28;20089;-64
2023/07/21 13:20:36;;;;;;;2.13;1.00;;;;;;;16.94;100.00;100420.41;5040160;28;20049;-64
2023/07/21 13:23:03;;;;;;;3.28;1.40;;;;;;;16.62;100.00;100423.75;5022297;28;20128;-64